James Turecamo — WDC7565 — position and weather

sailwx.info

Track history (hours):
 
Tides and Currents Weather Stations Pressure Air Temp Water Temp Dewpoint Dewpoint Depression Visibility Wind Speed Wind Dir Waves Ship Positions

James Turecamo

Owner: Moran Towing Corporation, New Canaan, CT. More information available from US FCC via Universal Licensing System and Coast Guard Vessel Documentation Center.

Last reported at 2014-Oct-22 13:23 UTC. Time now 2014-Oct-22 15:35 UTC.
Position N 40°37' W 074°12'.

Length 27 m; draft 4.5 m.

Type: Tug. MMSI: 367073380.

Date/timePositionNaut miles runAvg speedWind from/ knotsBaromVisibWave heightAir tempDewpointWater temp
2014-Oct-22 13:23N 40°37' W 074°12'3 4.2
2014-Oct-22 12:33N 40°38' W 074°08'0 0.0
2014-Oct-22 11:33N 40°38' W 074°08'3 2.6
2014-Oct-22 10:33N 40°41' W 074°09'2 2.0
2014-Oct-22 09:33N 40°39' W 074°09'1 1.0
2014-Oct-22 08:33N 40°38' W 074°08'3 0.8
2014-Oct-22 04:31N 40°38' W 074°12'3 1.5
2014-Oct-22 02:22N 40°38' W 074°08'0 0.0
2014-Oct-22 01:27N 40°38' W 074°08'7 8.2
2014-Oct-22 00:33N 40°42' W 073°60'1 0.8
2014-Oct-21 23:33N 40°42' W 074°00'7 6.5
2014-Oct-21 22:33N 40°38' W 074°08'0 0.0
2014-Oct-21 21:33N 40°38' W 074°08'0 0.0
2014-Oct-21 20:33N 40°38' W 074°08'0 0.0
2014-Oct-21 19:33N 40°38' W 074°08'0 0.0
2014-Oct-21 18:33N 40°38' W 074°08'0 0.0
2014-Oct-21 17:33N 40°38' W 074°08'0 0.0
2014-Oct-21 16:33N 40°38' W 074°08'0 0.0
2014-Oct-21 15:33N 40°38' W 074°08'0 0.0
2014-Oct-21 14:33N 40°38' W 074°08'4 3.5
2014-Oct-21 13:33N 40°40' W 074°03'5 4.6
2014-Oct-21 12:33N 40°42' W 073°59'0 0.3
2014-Oct-21 11:33N 40°42' W 073°58'8 7.9
2014-Oct-21 10:33N 40°38' W 074°08'0 0.0
2014-Oct-21 09:33N 40°38' W 074°08'0 0.0
2014-Oct-21 08:33N 40°38' W 074°08'0 0.0
2014-Oct-21 07:33N 40°38' W 074°08'0 0.0
2014-Oct-21 06:33N 40°38' W 074°08'2 1.5
2014-Oct-21 05:32N 40°40' W 074°08'6 5.6
2014-Oct-21 04:30N 40°45' W 074°05'4 1.9
2014-Oct-21 02:32N 40°48' W 074°03'4 4.0
2014-Oct-21 01:32N 40°45' W 074°06'1 0.7
2014-Oct-21 00:13N 40°44' W 074°05'2 2.3
2014-Oct-20 23:31N 40°43' W 074°07'1 0.5
2014-Oct-20 22:09N 40°43' W 074°07'5 6.4
2014-Oct-20 21:23N 40°38' W 074°08'0 0.0
2014-Oct-20 20:18N 40°38' W 074°08'0 0.0
2014-Oct-20 19:32N 40°38' W 074°08'0 0.0
2014-Oct-20 18:33N 40°38' W 074°08'0 0.0
2014-Oct-20 17:33N 40°38' W 074°08'0 0.0
2014-Oct-20 16:33N 40°38' W 074°08'0 0.0
2014-Oct-20 15:33N 40°38' W 074°08'0 0.0
2014-Oct-20 14:33N 40°38' W 074°08'0 0.0
2014-Oct-20 13:32N 40°38' W 074°08'4 3.7
2014-Oct-20 12:33N 40°41' W 074°04'2 2.0
2014-Oct-20 11:33N 40°39' W 074°03'3 3.5
2014-Oct-20 10:33N 40°38' W 074°08'0 0.2
2014-Oct-20 09:33N 40°39' W 074°08'0 0.2
2014-Oct-20 08:33N 40°38' W 074°08'0 0.0
2014-Oct-20 07:33N 40°38' W 074°08'0 0.0
2014-Oct-20 06:33N 40°38' W 074°08'0 0.0
2014-Oct-20 05:33N 40°38' W 074°08'0 0.0
2014-Oct-20 04:33N 40°38' W 074°08'3 2.8
2014-Oct-20 03:33N 40°41' W 074°08'0 0.0
2014-Oct-20 02:07N 40°41' W 074°08'3 4.8
2014-Oct-20 01:31N 40°38' W 074°08'0 0.0
2014-Oct-20 00:29N 40°38' W 074°08'0 0.0
2014-Oct-19 23:21N 40°38' W 074°08'0 0.0
2014-Oct-19 22:33N 40°38' W 074°08'0 0.1
2014-Oct-19 20:28N 40°39' W 074°08'0 0.1
2014-Oct-19 19:24N 40°38' W 074°08'0 0.0
2014-Oct-19 18:26N 40°38' W 074°08'0 0.0
2014-Oct-19 17:33N 40°38' W 074°08'0 0.0
2014-Oct-19 16:33N 40°38' W 074°08'0 0.0
2014-Oct-19 15:13N 40°38' W 074°08'0 0.0
2014-Oct-19 14:33N 40°38' W 074°08'0 0.0
2014-Oct-19 13:29N 40°38' W 074°08'0 0.0
2014-Oct-19 12:25N 40°38' W 074°08'0 0.0
2014-Oct-19 11:27N 40°38' W 074°08'4 4.3
2014-Oct-19 10:34N 40°38' W 074°03'4 3.5
2014-Oct-19 09:29N 40°38' W 074°08'0 0.0
2014-Oct-19 08:33N 40°38' W 074°08'0 0.0
2014-Oct-19 07:30N 40°38' W 074°08'0 0.0
2014-Oct-19 06:32N 40°38' W 074°08'0 0.0
2014-Oct-19 05:32N 40°38' W 074°08'0 0.0
2014-Oct-19 04:33N 40°38' W 074°08'2 2.2
2014-Oct-19 03:33N 40°39' W 074°05'2 2.2
2014-Oct-19 02:33N 40°38' W 074°08'0 0.0
2014-Oct-19 01:33N 40°38' W 074°08'0 0.0
2014-Oct-19 00:33N 40°38' W 074°08'0 0.0
2014-Oct-18 23:33N 40°38' W 074°08'0 0.0
2014-Oct-18 22:33N 40°38' W 074°08'0 0.0
2014-Oct-18 21:33N 40°38' W 074°08'0 0.0
2014-Oct-18 20:33N 40°38' W 074°08'0 0.0
2014-Oct-18 19:33N 40°38' W 074°08'0 0.0
2014-Oct-18 18:33N 40°38' W 074°08'0 0.0
2014-Oct-18 17:33N 40°38' W 074°08'0 0.0
2014-Oct-18 16:29N 40°38' W 074°08'0 0.0
2014-Oct-18 15:30N 40°38' W 074°08'2 2.3
2014-Oct-18 14:33N 40°39' W 074°05'1 1.0
2014-Oct-18 13:30N 40°39' W 074°06'1 1.2
2014-Oct-18 12:33N 40°38' W 074°08'0 0.0
2014-Oct-18 11:30N 40°38' W 074°08'1 1.0
2014-Oct-18 10:31N 40°39' W 074°09'2 2.4
2014-Oct-18 09:30N 40°41' W 074°08'3 2.8
2014-Oct-18 08:33N 40°38' W 074°08'0 0.0
2014-Oct-18 07:33N 40°38' W 074°08'0 0.0
2014-Oct-18 06:33N 40°38' W 074°08'0 0.0
2014-Oct-18 05:33N 40°38' W 074°08'0 0.0
2014-Oct-18 04:33N 40°38' W 074°08'0 0.0
2014-Oct-18 03:33N 40°38' W 074°08'0 0.0
2014-Oct-18 02:33N 40°38' W 074°08'0 0.0
2014-Oct-18 01:33N 40°38' W 074°08'0 0.0
2014-Oct-18 00:33N 40°38' W 074°08'0 0.0
2014-Oct-17 23:33N 40°38' W 074°08'5 4.6
2014-Oct-17 22:34N 40°40' W 074°02'3 3.5
2014-Oct-17 21:34N 40°42' W 073°59'1 0.7
2014-Oct-17 20:34N 40°42' W 073°60'7 7.3
2014-Oct-17 19:33N 40°38' W 074°08'0 0.0
2014-Oct-17 18:33N 40°38' W 074°08'0 0.0
2014-Oct-17 17:23N 40°38' W 074°08'0 0.0
2014-Oct-17 15:32N 40°38' W 074°08'0 0.0
2014-Oct-17 14:33N 40°38' W 074°08'0 0.0
2014-Oct-17 13:33N 40°38' W 074°08'0 0.0
2014-Oct-17 12:33N 40°38' W 074°08'1 1.3
2014-Oct-17 11:33N 40°39' W 074°09'1 0.8
2014-Oct-17 10:33N 40°40' W 074°08'2 1.8
2014-Oct-17 09:33N 40°38' W 074°08'1 1.4
2014-Oct-17 08:33N 40°39' W 074°06'0 0.4
2014-Oct-17 07:33N 40°39' W 074°06'1 0.7
2014-Oct-17 06:33N 40°39' W 074°06'1 1.1
2014-Oct-17 05:33N 40°38' W 074°08'0 0.0
2014-Oct-17 04:33N 40°38' W 074°08'0 0.0
2014-Oct-17 03:33N 40°38' W 074°08'0 0.0
2014-Oct-17 02:33N 40°38' W 074°08'2 2.2
2014-Oct-17 01:33N 40°39' W 074°05'2 2.2
2014-Oct-17 00:33N 40°38' W 074°08'0 0.0
2014-Oct-16 23:33N 40°38' W 074°08'1 0.9
2014-Oct-16 22:33N 40°39' W 074°09'3 2.6
2014-Oct-16 21:33N 40°41' W 074°08'5 5.0
2014-Oct-16 20:33N 40°37' W 074°03'3 2.7
2014-Oct-16 19:29N 40°39' W 074°07'1 1.0
2014-Oct-16 18:32N 40°38' W 074°08'0 0.0
2014-Oct-16 17:20N 40°38' W 074°08'0 0.0
2014-Oct-16 16:31N 40°38' W 074°08'0 0.1
2014-Oct-16 15:33N 40°38' W 074°08'0 0.1
2014-Oct-16 14:33N 40°38' W 074°08'0 0.0
2014-Oct-16 13:33N 40°38' W 074°08'0 0.0
2014-Oct-16 12:33N 40°38' W 074°08'0 0.0
2014-Oct-16 10:28N 40°38' W 074°08'0 0.0
2014-Oct-16 09:15N 40°38' W 074°08'0 0.0
2014-Oct-16 08:11N 40°38' W 074°08'7 1.2
2014-Oct-16 02:29N 40°33' W 074°14'8 8.5
2014-Oct-16 01:33N 40°39' W 074°07'2 1.6
2014-Oct-16 00:33N 40°39' W 074°05'2 1.7
2014-Oct-15 23:33N 40°39' W 074°07'3 0.8
2014-Oct-15 20:33N 40°41' W 074°08'2 2.4
2014-Oct-15 19:33N 40°39' W 074°08'0 0.5
2014-Oct-15 18:33N 40°38' W 074°08'0 0.0
2014-Oct-15 17:33N 40°38' W 074°08'0 0.0
2014-Oct-15 16:33N 40°38' W 074°08'4 3.9
2014-Oct-15 15:34N 40°39' W 074°03'6 6.0
2014-Oct-15 14:33N 40°39' W 074°11'1 1.4
2014-Oct-15 13:29N 40°38' W 074°12'3 3.2
2014-Oct-15 12:29N 40°40' W 074°09'1 1.2
2014-Oct-15 11:33N 40°41' W 074°09'2 2.4
2014-Oct-15 10:33N 40°38' W 074°08'0 0.0
2014-Oct-15 09:33N 40°38' W 074°08'0 0.0
2014-Oct-15 08:33N 40°38' W 074°08'0 0.0
2014-Oct-15 07:33N 40°38' W 074°08'0 0.0
2014-Oct-15 06:33N 40°38' W 074°08'0 0.0
2014-Oct-15 05:33N 40°38' W 074°08'0 0.0
2014-Oct-15 04:33N 40°38' W 074°08'0 0.0
2014-Oct-15 03:33N 40°38' W 074°08'0 0.0
2014-Oct-15 02:33N 40°38' W 074°08'0 0.0
2014-Oct-15 01:29N 40°38' W 074°08'0 0.0
2014-Oct-15 00:33N 40°38' W 074°08'0 0.0
2014-Oct-14 23:33N 40°38' W 074°08'2 2.1
2014-Oct-14 22:33N 40°41' W 074°08'1 1.3
2014-Oct-14 21:33N 40°39' W 074°09'5 4.6
2014-Oct-14 20:32N 40°38' W 074°03'4 2.9
2014-Oct-14 19:17N 40°38' W 074°08'0 0.0
2014-Oct-14 18:32N 40°38' W 074°08'0 0.0
2014-Oct-14 17:31N 40°38' W 074°08'0 0.0
2014-Oct-14 16:32N 40°38' W 074°08'4 3.8
2014-Oct-14 15:33N 40°39' W 074°03'4 3.6
2014-Oct-14 14:31N 40°38' W 074°08'0 0.0
2014-Oct-14 13:33N 40°38' W 074°08'0 0.0
2014-Oct-14 12:33N 40°38' W 074°08'0 0.0
2014-Oct-14 11:33N 40°38' W 074°08'0 0.0
2014-Oct-14 10:32N 40°38' W 074°08'2 2.3
2014-Oct-14 09:28N 40°41' W 074°09'0 0.4
2014-Oct-14 08:29N 40°41' W 074°08'2 2.2
2014-Oct-14 07:24N 40°39' W 074°09'3 3.3
2014-Oct-14 06:32N 40°39' W 074°05'2 1.9
2014-Oct-14 05:27N 40°41' W 074°04'4 0.6
2014-Oct-13 23:32N 40°38' W 074°08'0 0.0
2014-Oct-13 22:32N 40°38' W 074°08'0 0.0
2014-Oct-13 20:16N 40°38' W 074°08'0 0.0
2014-Oct-13 19:13N 40°38' W 074°08'0 0.0
2014-Oct-13 17:29N 40°38' W 074°08'0 0.0
2014-Oct-13 16:31N 40°38' W 074°08'0 0.0
2014-Oct-13 15:33N 40°38' W 074°08'0 0.0
2014-Oct-13 14:33N 40°38' W 074°08'0 0.0
2014-Oct-13 13:33N 40°38' W 074°08'0 0.0
2014-Oct-13 12:33N 40°38' W 074°08'0 0.0
2014-Oct-13 11:33N 40°38' W 074°08'1 1.2
2014-Oct-13 10:34N 40°39' W 074°09'1 1.2
2014-Oct-13 09:33N 40°38' W 074°08'0 0.0
2014-Oct-13 08:33N 40°38' W 074°08'0 0.0
2014-Oct-13 07:34N 40°38' W 074°08'0 0.0
2014-Oct-13 06:33N 40°38' W 074°08'3 2.3
2014-Oct-13 05:26N 40°39' W 074°11'7 7.1
2014-Oct-13 04:25N 40°32' W 074°15'19 1.8
2014-Oct-12 18:14N 40°48' W 074°03'3 4.2
2014-Oct-12 17:27N 40°46' W 074°05'3 1.6
2014-Oct-12 15:24N 40°43' W 074°07'  
Track history (hours):
 
Tides and Currents Weather Stations Pressure Air Temp Water Temp Dewpoint Dewpoint Depression Visibility Wind Speed Wind Dir Waves Ship Positions

James Turecamo

Owner: Moran Towing Corporation, New Canaan, CT. More information available from US FCC via Universal Licensing System and Coast Guard Vessel Documentation Center.

Last reported at 2014-Oct-22 13:23 UTC. Time now 2014-Oct-22 15:35 UTC.
Position N 40°37' W 074°12'.

Length 27 m; draft 4.5 m.

Type: Tug. MMSI: 367073380.

Date/timePositionNaut miles runAvg speedWind from/ knotsBaromVisibWave heightAir tempDewpointWater temp
2014-Oct-22 13:23N 40°37' W 074°12'3 4.2
2014-Oct-22 12:33N 40°38' W 074°08'0 0.0
2014-Oct-22 11:33N 40°38' W 074°08'3 2.6
2014-Oct-22 10:33N 40°41' W 074°09'2 2.0
2014-Oct-22 09:33N 40°39' W 074°09'1 1.0
2014-Oct-22 08:33N 40°38' W 074°08'3 0.8
2014-Oct-22 04:31N 40°38' W 074°12'3 1.5
2014-Oct-22 02:22N 40°38' W 074°08'0 0.0
2014-Oct-22 01:27N 40°38' W 074°08'7 8.2
2014-Oct-22 00:33N 40°42' W 073°60'1 0.8
2014-Oct-21 23:33N 40°42' W 074°00'7 6.5
2014-Oct-21 22:33N 40°38' W 074°08'0 0.0
2014-Oct-21 21:33N 40°38' W 074°08'0 0.0
2014-Oct-21 20:33N 40°38' W 074°08'0 0.0
2014-Oct-21 19:33N 40°38' W 074°08'0 0.0
2014-Oct-21 18:33N 40°38' W 074°08'0 0.0
2014-Oct-21 17:33N 40°38' W 074°08'0 0.0
2014-Oct-21 16:33N 40°38' W 074°08'0 0.0
2014-Oct-21 15:33N 40°38' W 074°08'0 0.0
2014-Oct-21 14:33N 40°38' W 074°08'4 3.5
2014-Oct-21 13:33N 40°40' W 074°03'5 4.6
2014-Oct-21 12:33N 40°42' W 073°59'0 0.3
2014-Oct-21 11:33N 40°42' W 073°58'8 7.9
2014-Oct-21 10:33N 40°38' W 074°08'0 0.0
2014-Oct-21 09:33N 40°38' W 074°08'0 0.0
2014-Oct-21 08:33N 40°38' W 074°08'0 0.0
2014-Oct-21 07:33N 40°38' W 074°08'0 0.0
2014-Oct-21 06:33N 40°38' W 074°08'2 1.5
2014-Oct-21 05:32N 40°40' W 074°08'6 5.6
2014-Oct-21 04:30N 40°45' W 074°05'4 1.9
2014-Oct-21 02:32N 40°48' W 074°03'4 4.0
2014-Oct-21 01:32N 40°45' W 074°06'1 0.7
2014-Oct-21 00:13N 40°44' W 074°05'2 2.3
2014-Oct-20 23:31N 40°43' W 074°07'1 0.5
2014-Oct-20 22:09N 40°43' W 074°07'5 6.4
2014-Oct-20 21:23N 40°38' W 074°08'0 0.0
2014-Oct-20 20:18N 40°38' W 074°08'0 0.0
2014-Oct-20 19:32N 40°38' W 074°08'0 0.0
2014-Oct-20 18:33N 40°38' W 074°08'0 0.0
2014-Oct-20 17:33N 40°38' W 074°08'0 0.0
2014-Oct-20 16:33N 40°38' W 074°08'0 0.0
2014-Oct-20 15:33N 40°38' W 074°08'0 0.0
2014-Oct-20 14:33N 40°38' W 074°08'0 0.0
2014-Oct-20 13:32N 40°38' W 074°08'4 3.7
2014-Oct-20 12:33N 40°41' W 074°04'2 2.0
2014-Oct-20 11:33N 40°39' W 074°03'3 3.5
2014-Oct-20 10:33N 40°38' W 074°08'0 0.2
2014-Oct-20 09:33N 40°39' W 074°08'0 0.2
2014-Oct-20 08:33N 40°38' W 074°08'0 0.0
2014-Oct-20 07:33N 40°38' W 074°08'0 0.0
2014-Oct-20 06:33N 40°38' W 074°08'0 0.0
2014-Oct-20 05:33N 40°38' W 074°08'0 0.0
2014-Oct-20 04:33N 40°38' W 074°08'3 2.8
2014-Oct-20 03:33N 40°41' W 074°08'0 0.0
2014-Oct-20 02:07N 40°41' W 074°08'3 4.8
2014-Oct-20 01:31N 40°38' W 074°08'0 0.0
2014-Oct-20 00:29N 40°38' W 074°08'0 0.0
2014-Oct-19 23:21N 40°38' W 074°08'0 0.0
2014-Oct-19 22:33N 40°38' W 074°08'0 0.1
2014-Oct-19 20:28N 40°39' W 074°08'0 0.1
2014-Oct-19 19:24N 40°38' W 074°08'0 0.0
2014-Oct-19 18:26N 40°38' W 074°08'0 0.0
2014-Oct-19 17:33N 40°38' W 074°08'0 0.0
2014-Oct-19 16:33N 40°38' W 074°08'0 0.0
2014-Oct-19 15:13N 40°38' W 074°08'0 0.0
2014-Oct-19 14:33N 40°38' W 074°08'0 0.0
2014-Oct-19 13:29N 40°38' W 074°08'0 0.0
2014-Oct-19 12:25N 40°38' W 074°08'0 0.0
2014-Oct-19 11:27N 40°38' W 074°08'4 4.3
2014-Oct-19 10:34N 40°38' W 074°03'4 3.5
2014-Oct-19 09:29N 40°38' W 074°08'0 0.0
2014-Oct-19 08:33N 40°38' W 074°08'0 0.0
2014-Oct-19 07:30N 40°38' W 074°08'0 0.0
2014-Oct-19 06:32N 40°38' W 074°08'0 0.0
2014-Oct-19 05:32N 40°38' W 074°08'0 0.0
2014-Oct-19 04:33N 40°38' W 074°08'2 2.2
2014-Oct-19 03:33N 40°39' W 074°05'2 2.2
2014-Oct-19 02:33N 40°38' W 074°08'0 0.0
2014-Oct-19 01:33N 40°38' W 074°08'0 0.0
2014-Oct-19 00:33N 40°38' W 074°08'0 0.0
2014-Oct-18 23:33N 40°38' W 074°08'0 0.0
2014-Oct-18 22:33N 40°38' W 074°08'0 0.0
2014-Oct-18 21:33N 40°38' W 074°08'0 0.0
2014-Oct-18 20:33N 40°38' W 074°08'0 0.0
2014-Oct-18 19:33N 40°38' W 074°08'0 0.0
2014-Oct-18 18:33N 40°38' W 074°08'0 0.0
2014-Oct-18 17:33N 40°38' W 074°08'0 0.0
2014-Oct-18 16:29N 40°38' W 074°08'0 0.0
2014-Oct-18 15:30N 40°38' W 074°08'2 2.3
2014-Oct-18 14:33N 40°39' W 074°05'1 1.0
2014-Oct-18 13:30N 40°39' W 074°06'1 1.2
2014-Oct-18 12:33N 40°38' W 074°08'0 0.0
2014-Oct-18 11:30N 40°38' W 074°08'1 1.0
2014-Oct-18 10:31N 40°39' W 074°09'2 2.4
2014-Oct-18 09:30N 40°41' W 074°08'3 2.8
2014-Oct-18 08:33N 40°38' W 074°08'0 0.0
2014-Oct-18 07:33N 40°38' W 074°08'0 0.0
2014-Oct-18 06:33N 40°38' W 074°08'0 0.0
2014-Oct-18 05:33N 40°38' W 074°08'0 0.0
2014-Oct-18 04:33N 40°38' W 074°08'0 0.0
2014-Oct-18 03:33N 40°38' W 074°08'0 0.0
2014-Oct-18 02:33N 40°38' W 074°08'0 0.0
2014-Oct-18 01:33N 40°38' W 074°08'0 0.0
2014-Oct-18 00:33N 40°38' W 074°08'0 0.0
2014-Oct-17 23:33N 40°38' W 074°08'5 4.6
2014-Oct-17 22:34N 40°40' W 074°02'3 3.5
2014-Oct-17 21:34N 40°42' W 073°59'1 0.7
2014-Oct-17 20:34N 40°42' W 073°60'7 7.3
2014-Oct-17 19:33N 40°38' W 074°08'0 0.0
2014-Oct-17 18:33N 40°38' W 074°08'0 0.0
2014-Oct-17 17:23N 40°38' W 074°08'0 0.0
2014-Oct-17 15:32N 40°38' W 074°08'0 0.0
2014-Oct-17 14:33N 40°38' W 074°08'0 0.0
2014-Oct-17 13:33N 40°38' W 074°08'0 0.0
2014-Oct-17 12:33N 40°38' W 074°08'1 1.3
2014-Oct-17 11:33N 40°39' W 074°09'1 0.8
2014-Oct-17 10:33N 40°40' W 074°08'2 1.8
2014-Oct-17 09:33N 40°38' W 074°08'1 1.4
2014-Oct-17 08:33N 40°39' W 074°06'0 0.4
2014-Oct-17 07:33N 40°39' W 074°06'1 0.7
2014-Oct-17 06:33N 40°39' W 074°06'1 1.1
2014-Oct-17 05:33N 40°38' W 074°08'0 0.0
2014-Oct-17 04:33N 40°38' W 074°08'0 0.0
2014-Oct-17 03:33N 40°38' W 074°08'0 0.0
2014-Oct-17 02:33N 40°38' W 074°08'2 2.2
2014-Oct-17 01:33N 40°39' W 074°05'2 2.2
2014-Oct-17 00:33N 40°38' W 074°08'0 0.0
2014-Oct-16 23:33N 40°38' W 074°08'1 0.9
2014-Oct-16 22:33N 40°39' W 074°09'3 2.6
2014-Oct-16 21:33N 40°41' W 074°08'5 5.0
2014-Oct-16 20:33N 40°37' W 074°03'3 2.7
2014-Oct-16 19:29N 40°39' W 074°07'1 1.0
2014-Oct-16 18:32N 40°38' W 074°08'0 0.0
2014-Oct-16 17:20N 40°38' W 074°08'0 0.0
2014-Oct-16 16:31N 40°38' W 074°08'0 0.1
2014-Oct-16 15:33N 40°38' W 074°08'0 0.1
2014-Oct-16 14:33N 40°38' W 074°08'0 0.0
2014-Oct-16 13:33N 40°38' W 074°08'0 0.0
2014-Oct-16 12:33N 40°38' W 074°08'0 0.0
2014-Oct-16 10:28N 40°38' W 074°08'0 0.0
2014-Oct-16 09:15N 40°38' W 074°08'0 0.0
2014-Oct-16 08:11N 40°38' W 074°08'7 1.2
2014-Oct-16 02:29N 40°33' W 074°14'8 8.5
2014-Oct-16 01:33N 40°39' W 074°07'2 1.6
2014-Oct-16 00:33N 40°39' W 074°05'2 1.7
2014-Oct-15 23:33N 40°39' W 074°07'3 0.8
2014-Oct-15 20:33N 40°41' W 074°08'2 2.4
2014-Oct-15 19:33N 40°39' W 074°08'0 0.5
2014-Oct-15 18:33N 40°38' W 074°08'0 0.0
2014-Oct-15 17:33N 40°38' W 074°08'0 0.0
2014-Oct-15 16:33N 40°38' W 074°08'4 3.9
2014-Oct-15 15:34N 40°39' W 074°03'6 6.0
2014-Oct-15 14:33N 40°39' W 074°11'1 1.4
2014-Oct-15 13:29N 40°38' W 074°12'3 3.2
2014-Oct-15 12:29N 40°40' W 074°09'1 1.2
2014-Oct-15 11:33N 40°41' W 074°09'2 2.4
2014-Oct-15 10:33N 40°38' W 074°08'0 0.0
2014-Oct-15 09:33N 40°38' W 074°08'0 0.0
2014-Oct-15 08:33N 40°38' W 074°08'0 0.0
2014-Oct-15 07:33N 40°38' W 074°08'0 0.0
2014-Oct-15 06:33N 40°38' W 074°08'0 0.0
2014-Oct-15 05:33N 40°38' W 074°08'0 0.0
2014-Oct-15 04:33N 40°38' W 074°08'0 0.0
2014-Oct-15 03:33N 40°38' W 074°08'0 0.0
2014-Oct-15 02:33N 40°38' W 074°08'0 0.0
2014-Oct-15 01:29N 40°38' W 074°08'0 0.0
2014-Oct-15 00:33N 40°38' W 074°08'0 0.0
2014-Oct-14 23:33N 40°38' W 074°08'2 2.1
2014-Oct-14 22:33N 40°41' W 074°08'1 1.3
2014-Oct-14 21:33N 40°39' W 074°09'5 4.6
2014-Oct-14 20:32N 40°38' W 074°03'4 2.9
2014-Oct-14 19:17N 40°38' W 074°08'0 0.0
2014-Oct-14 18:32N 40°38' W 074°08'0 0.0
2014-Oct-14 17:31N 40°38' W 074°08'0 0.0
2014-Oct-14 16:32N 40°38' W 074°08'4 3.8
2014-Oct-14 15:33N 40°39' W 074°03'4 3.6
2014-Oct-14 14:31N 40°38' W 074°08'0 0.0
2014-Oct-14 13:33N 40°38' W 074°08'0 0.0
2014-Oct-14 12:33N 40°38' W 074°08'0 0.0
2014-Oct-14 11:33N 40°38' W 074°08'0 0.0
2014-Oct-14 10:32N 40°38' W 074°08'2 2.3
2014-Oct-14 09:28N 40°41' W 074°09'0 0.4
2014-Oct-14 08:29N 40°41' W 074°08'2 2.2
2014-Oct-14 07:24N 40°39' W 074°09'3 3.3
2014-Oct-14 06:32N 40°39' W 074°05'2 1.9
2014-Oct-14 05:27N 40°41' W 074°04'4 0.6
2014-Oct-13 23:32N 40°38' W 074°08'0 0.0
2014-Oct-13 22:32N 40°38' W 074°08'0 0.0
2014-Oct-13 20:16N 40°38' W 074°08'0 0.0
2014-Oct-13 19:13N 40°38' W 074°08'0 0.0
2014-Oct-13 17:29N 40°38' W 074°08'0 0.0
2014-Oct-13 16:31N 40°38' W 074°08'0 0.0
2014-Oct-13 15:33N 40°38' W 074°08'0 0.0
2014-Oct-13 14:33N 40°38' W 074°08'0 0.0
2014-Oct-13 13:33N 40°38' W 074°08'0 0.0
2014-Oct-13 12:33N 40°38' W 074°08'0 0.0
2014-Oct-13 11:33N 40°38' W 074°08'1 1.2
2014-Oct-13 10:34N 40°39' W 074°09'1 1.2
2014-Oct-13 09:33N 40°38' W 074°08'0 0.0
2014-Oct-13 08:33N 40°38' W 074°08'0 0.0
2014-Oct-13 07:34N 40°38' W 074°08'0 0.0
2014-Oct-13 06:33N 40°38' W 074°08'3 2.3
2014-Oct-13 05:26N 40°39' W 074°11'7 7.1
2014-Oct-13 04:25N 40°32' W 074°15'19 1.8
2014-Oct-12 18:14N 40°48' W 074°03'3 4.2
2014-Oct-12 17:27N 40°46' W 074°05'3 1.6
2014-Oct-12 15:24N 40°43' W 074°07'  

Dump ship's entire track history